createdAt,value
2022-08-21T00:02:30.500Z,-11500.56
2022-08-21T00:05:42.231Z,-11511.56
2022-08-21T00:08:48.599Z,-11515.25
2022-08-21T00:11:55.000Z,-11500.72
2022-08-21T00:15:01.103Z,-11507.78
2022-08-21T00:18:09.582Z,-11483.78
2022-08-21T00:21:17.720Z,-11478.00
2022-08-21T00:24:25.934Z,-11480.69
2022-08-21T00:27:32.149Z,-11480.25
2022-08-21T00:30:39.202Z,-11455.03
2022-08-21T00:33:46.387Z,-11451.50
2022-08-21T00:36:54.214Z,-11468.84
2022-08-21T00:40:00.666Z,-11469.69
2022-08-21T00:43:10.077Z,-11471.53
2022-08-21T00:46:16.372Z,-11474.34
2022-08-21T00:49:22.800Z,-11460.09
2022-08-21T00:52:34.321Z,-11464.59
2022-08-21T00:55:40.973Z,-11460.94
2022-08-21T00:58:48.041Z,-11463.47
2022-08-21T01:01:59.535Z,-11450.50
2022-08-21T01:05:06.999Z,-11445.44
2022-08-21T01:08:16.292Z,-11466.44
2022-08-21T01:11:23.002Z,-11469.97
2022-08-21T01:14:29.746Z,-11472.78
2022-08-21T01:17:37.627Z,-11464.03
2022-08-21T01:20:47.979Z,-11449.81
2022-08-21T01:23:59.823Z,-11456.16
2022-08-21T01:27:07.000Z,-11456.28
2022-08-21T01:30:16.980Z,-11450.50
2022-08-21T01:33:26.367Z,-11466.00
2022-08-21T01:36:33.457Z,-11469.97
2022-08-21T01:39:41.930Z,-11458.13
2022-08-21T01:42:49.960Z,-11440.91
2022-08-21T01:45:56.166Z,-11456.72
2022-08-21T01:49:02.374Z,-11463.06
2022-08-21T01:52:09.508Z,-11450.50
2022-08-21T01:55:18.975Z,-11457.84
2022-08-21T01:58:25.246Z,-11465.03
2022-08-21T02:01:31.551Z,-11460.38
2022-08-21T02:04:38.034Z,-11463.19
2022-08-21T02:07:48.211Z,-11471.09
2022-08-21T02:10:55.894Z,-11450.78
2022-08-21T02:14:02.481Z,-11458.41
2022-08-21T02:17:09.912Z,-11461.50
2022-08-21T02:20:20.911Z,-11456.56
2022-08-21T02:23:27.733Z,-11466.31
2022-08-21T02:26:35.627Z,-11467.00
2022-08-21T02:29:42.088Z,-11462.34
2022-08-21T02:32:49.095Z,-11453.03
2022-08-21T02:35:56.206Z,-11463.47
2022-08-21T02:39:02.188Z,-11459.69
2022-08-21T02:42:10.055Z,-11468.13
2022-08-21T02:45:17.391Z,-11453.19
2022-08-21T02:48:26.464Z,-11437.81
2022-08-21T02:51:32.780Z,-11437.53
2022-08-21T02:54:39.107Z,-11453.75
2022-08-21T02:57:46.828Z,-11473.63
2022-08-21T03:00:53.763Z,-11480.25
2022-08-21T03:04:00.134Z,-11484.78
2022-08-21T03:07:06.776Z,-11484.91
2022-08-21T03:10:18.576Z,-11480.69
2022-08-21T03:13:26.364Z,-11481.25
2022-08-21T03:16:35.028Z,-11469.97
2022-08-21T03:19:41.507Z,-11467.44
2022-08-21T03:22:52.868Z,-11473.50
2022-08-21T03:25:59.506Z,-11474.75
2022-08-21T03:29:08.449Z,-11471.37
2022-08-21T03:32:14.950Z,-11460.94
2022-08-21T03:35:21.880Z,-11462.06
2022-08-21T03:38:30.063Z,-11459.13
2022-08-21T03:41:36.289Z,-11467.44
2022-08-21T03:44:43.736Z,-11474.75
2022-08-21T03:47:55.075Z,-11475.91
2022-08-21T03:51:01.387Z,-11484.22
2022-08-21T03:54:07.725Z,-11475.06
2022-08-21T03:57:14.476Z,-11464.03
2022-08-21T04:00:22.687Z,-11466.44
2022-08-21T04:03:29.519Z,-11464.47
2022-08-21T04:06:37.887Z,-11483.78
2022-08-21T04:09:44.316Z,-11479.84
2022-08-21T04:12:50.604Z,-11484.34
2022-08-21T04:15:59.130Z,-11481.25
2022-08-21T04:19:05.757Z,-11481.53
2022-08-21T04:22:12.348Z,-11482.38
2022-08-21T04:25:19.963Z,-11485.91
2022-08-21T04:28:29.192Z,-11488.44
2022-08-21T04:31:39.084Z,-11487.47
2022-08-21T04:34:45.400Z,-11487.75
2022-08-21T04:37:51.920Z,-11484.34
2022-08-21T04:40:58.175Z,-11477.44
2022-08-21T04:44:05.425Z,-11483.22
2022-08-21T04:47:13.133Z,-11484.63
2022-08-21T04:50:19.906Z,-11484.06
2022-08-21T04:53:36.083Z,-11489.44
2022-08-21T04:56:46.469Z,-11465.44
2022-08-21T04:59:54.016Z,-11478.72
2022-08-21T05:03:03.518Z,-11483.66
2022-08-21T05:06:12.971Z,-11463.75
2022-08-21T05:09:20.904Z,-11468.56
2022-08-21T05:12:27.209Z,-11465.59
2022-08-21T05:15:33.441Z,-11469.41
2022-08-21T05:18:41.079Z,-11476.75
2022-08-21T05:21:49.467Z,-11474.47
2022-08-21T05:24:55.926Z,-11468.97
2022-08-21T05:28:02.082Z,-11490.41
2022-08-21T05:31:09.143Z,-11490.84
2022-08-21T05:34:21.704Z,-11488.88
2022-08-21T05:37:27.726Z,-11493.94
2022-08-21T05:40:34.282Z,-11486.47
2022-08-21T05:43:40.525Z,-11490.41
2022-08-21T05:46:46.907Z,-11493.25
2022-08-21T05:49:54.438Z,-11491.53
2022-08-21T05:53:06.924Z,-11477.31
2022-08-21T05:56:15.758Z,-11480.53
2022-08-21T05:59:22.006Z,-11495.91
2022-08-21T06:02:28.442Z,-11490.13
2022-08-21T06:05:37.283Z,-11497.03
2022-08-21T06:08:44.147Z,-11497.31
2022-08-21T06:11:50.371Z,-11496.47
2022-08-21T06:14:56.984Z,-11508.06
2022-08-21T06:18:03.075Z,-11512.00
2022-08-21T06:21:12.471Z,-11507.34
2022-08-21T06:24:18.592Z,-11501.84
2022-08-21T06:27:26.753Z,-11495.63
2022-08-21T06:30:33.428Z,-11495.34
2022-08-21T06:33:39.810Z,-11493.38
2022-08-21T06:36:47.909Z,-11499.31
2022-08-21T06:39:54.331Z,-11495.63
2022-08-21T06:43:07.247Z,-11506.34
2022-08-21T06:46:13.347Z,-11507.50
2022-08-21T06:49:21.525Z,-11512.97
2022-08-21T06:52:29.220Z,-11521.03
2022-08-21T06:55:35.569Z,-11518.22
2022-08-21T06:58:41.872Z,-11522.72
2022-08-21T07:01:48.128Z,-11526.94
2022-08-21T07:04:54.442Z,-11527.94
2022-08-21T07:08:02.215Z,-11526.25
2022-08-21T07:11:15.290Z,-11533.72
2022-08-21T07:14:21.863Z,-11535.84
2022-08-21T07:17:27.951Z,-11534.16
2022-08-21T07:20:34.775Z,-11534.28
2022-08-21T07:23:44.331Z,-11548.81
2022-08-21T07:26:50.778Z,-11534.28
2022-08-21T07:29:56.737Z,-11541.91
2022-08-21T07:33:03.098Z,-11528.38
2022-08-21T07:36:10.175Z,-11535.84
2022-08-21T07:39:18.149Z,-11564.78
2022-08-21T07:42:24.675Z,-11555.47
2022-08-21T07:45:32.019Z,-11571.13
2022-08-21T07:48:38.897Z,-11565.06
2022-08-21T07:51:45.205Z,-11559.53
2022-08-21T07:54:53.071Z,-11555.19
2022-08-21T07:57:59.568Z,-11556.44
2022-08-21T08:01:07.059Z,-11569.28
2022-08-21T08:04:13.583Z,-11587.22
2022-08-21T08:07:20.254Z,-11589.63
2022-08-21T08:10:28.279Z,-11587.06
2022-08-21T08:13:40.229Z,-11584.25
2022-08-21T08:16:46.615Z,-11574.78
2022-08-21T08:19:53.245Z,-11587.63
2022-08-21T08:22:59.862Z,-11584.66
2022-08-21T08:26:08.012Z,-11582.28
2022-08-21T08:29:14.322Z,-11578.47
2022-08-21T08:32:21.406Z,-11590.47
2022-08-21T08:35:29.935Z,-11596.38
2022-08-21T08:38:37.736Z,-11577.75
2022-08-21T08:41:52.196Z,-11595.69
2022-08-21T08:45:08.774Z,-11602.88
2022-08-21T08:48:34.372Z,-11588.22
2022-08-21T08:51:47.694Z,-11585.94
2022-08-21T08:55:05.607Z,-11585.53
2022-08-21T08:58:19.074Z,-11586.50
2022-08-21T09:01:25.266Z,-11566.75
2022-08-21T09:04:34.739Z,-11555.19
2022-08-21T09:07:48.916Z,-11579.44
2022-08-21T09:11:06.076Z,-11559.13
2022-08-21T09:14:19.299Z,-11563.91
2022-08-21T09:17:38.796Z,-11553.47
2022-08-21T09:21:05.380Z,-11571.84
2022-08-21T09:24:27.183Z,-11543.03
2022-08-21T09:27:34.075Z,-11568.03
2022-08-21T09:30:43.248Z,-11571.41
2022-08-21T09:33:49.579Z,-11566.19
2022-08-21T09:36:56.044Z,-11582.56
2022-08-21T09:40:16.726Z,-11582.84
2022-08-21T09:43:26.458Z,-11576.06
2022-08-21T09:46:34.936Z,-11569.84
2022-08-21T09:49:43.820Z,-11567.03
2022-08-21T09:52:56.830Z,-11563.50
2022-08-21T09:56:24.341Z,-11570.13
2022-08-21T09:59:36.707Z,-11584.81
2022-08-21T10:02:45.071Z,-11600.75
2022-08-21T10:06:02.967Z,-11598.22
2022-08-21T10:09:18.771Z,-11594.00
2022-08-21T10:12:35.642Z,-11606.13
2022-08-21T10:15:53.311Z,-11591.03
2022-08-21T10:19:14.548Z,-11593.72
2022-08-21T10:22:32.435Z,-11592.56
2022-08-21T10:25:57.002Z,-11580.56
2022-08-21T10:29:26.867Z,-11585.66
2022-08-21T10:32:46.642Z,-11568.72
2022-08-21T10:36:04.507Z,-11584.38
2022-08-21T10:39:35.061Z,-11565.63
2022-08-21T10:42:51.683Z,-11564.78
2022-08-21T10:46:09.440Z,-11565.19
2022-08-21T10:49:24.367Z,-11559.97
2022-08-21T10:53:03.491Z,-11561.53
2022-08-21T10:56:17.629Z,-11556.03
2022-08-21T10:59:29.311Z,-11558.84
2022-08-21T11:02:41.716Z,-11551.78
2022-08-21T11:05:53.131Z,-11565.91
2022-08-21T11:09:13.874Z,-11570.41
2022-08-21T11:12:29.554Z,-11567.31
2022-08-21T11:15:41.081Z,-11561.09
2022-08-21T11:18:51.487Z,-11563.06
2022-08-21T11:22:04.695Z,-11564.34
2022-08-21T11:25:19.881Z,-11567.31
2022-08-21T11:28:30.897Z,-11568.44
2022-08-21T11:31:50.186Z,-11570.28
2022-08-21T11:35:05.751Z,-11540.78
2022-08-21T11:38:24.487Z,-11538.81
2022-08-21T11:41:39.729Z,-11543.59
2022-08-21T11:44:53.645Z,-11556.59
2022-08-21T11:48:10.013Z,-11549.53
2022-08-21T11:51:22.182Z,-11574.66
2022-08-21T11:54:33.143Z,-11558.56
2022-08-21T11:57:46.842Z,-11544.59
2022-08-21T12:00:56.919Z,-11562.22
2022-08-21T12:04:06.571Z,-11569.28
2022-08-21T12:07:15.668Z,-11546.16
2022-08-21T12:10:33.107Z,-11565.91
2022-08-21T12:13:54.933Z,-11561.53
2022-08-21T12:17:08.859Z,-11554.34
2022-08-21T12:20:27.730Z,-11537.69
2022-08-21T12:23:38.006Z,-11526.81
2022-08-21T12:26:51.928Z,-11525.84
2022-08-21T12:30:03.453Z,-11548.13
2022-08-21T12:33:24.388Z,-11561.94
2022-08-21T12:36:44.044Z,-11548.13
2022-08-21T12:39:53.509Z,-11556.16
2022-08-21T12:43:03.514Z,-11545.31
2022-08-21T12:46:19.472Z,-11567.19
2022-08-21T12:49:33.293Z,-11565.91
2022-08-21T12:52:47.020Z,-11541.50
2022-08-21T12:55:53.561Z,-11537.69
2022-08-21T12:59:06.129Z,-11542.75
2022-08-21T13:02:19.708Z,-11543.75
2022-08-21T13:05:36.995Z,-11548.13
2022-08-21T13:08:47.337Z,-11533.16
2022-08-21T13:11:54.553Z,-11547.56
2022-08-21T13:15:04.395Z,-11560.41
2022-08-21T13:18:25.550Z,-11570.41
2022-08-21T13:21:35.182Z,-11560.53
2022-08-21T13:24:43.188Z,-11561.09
2022-08-21T13:28:01.406Z,-11558.69
2022-08-21T13:31:11.974Z,-11559.41
2022-08-21T13:34:22.043Z,-11561.25
2022-08-21T13:37:30.368Z,-11561.81
2022-08-21T13:40:48.208Z,-11565.34
2022-08-21T13:44:00.938Z,-11566.19
2022-08-21T13:47:08.664Z,-11562.09
2022-08-21T13:50:18.747Z,-11561.81
2022-08-21T13:53:32.087Z,-11565.19
2022-08-21T13:56:46.704Z,-11562.38
2022-08-21T13:59:56.140Z,-11572.41
2022-08-21T14:03:08.162Z,-11566.03
2022-08-21T14:06:19.339Z,-11556.31
2022-08-21T14:09:30.460Z,-11566.75
2022-08-21T14:12:43.127Z,-11573.38
2022-08-21T14:15:57.588Z,-11570.13
2022-08-21T14:19:13.010Z,-11566.19
2022-08-21T14:22:39.138Z,-11563.63
2022-08-21T14:25:47.890Z,-11561.66
2022-08-21T14:28:53.869Z,-11581.72
2022-08-21T14:32:02.335Z,-11586.50
2022-08-21T14:35:11.994Z,-11587.06
2022-08-21T14:38:22.918Z,-11574.38
2022-08-21T14:41:30.895Z,-11569.72
2022-08-21T14:44:37.617Z,-11564.22
2022-08-21T14:47:45.016Z,-11559.41
2022-08-21T14:50:51.350Z,-11572.13
2022-08-21T14:53:59.055Z,-11580.84
2022-08-21T14:57:09.926Z,-11579.31
2022-08-21T15:00:19.534Z,-11572.13
2022-08-21T15:03:26.556Z,-11577.34
2022-08-21T15:06:32.923Z,-11584.25
2022-08-21T15:09:40.528Z,-11579.44
2022-08-21T15:12:46.810Z,-11579.31
2022-08-21T15:15:54.198Z,-11585.09
2022-08-21T15:19:01.071Z,-11565.19
2022-08-21T15:22:15.568Z,-11564.91
2022-08-21T15:25:26.718Z,-11575.06
2022-08-21T15:28:33.243Z,-11576.34
2022-08-21T15:31:51.332Z,-11579.59
2022-08-21T15:34:58.538Z,-11576.91
2022-08-21T15:38:05.559Z,-11564.22
2022-08-21T15:41:20.374Z,-11576.34
2022-08-21T15:44:28.489Z,-11576.91
2022-08-21T15:47:37.533Z,-11583.69
2022-08-21T15:50:43.807Z,-11594.97
2022-08-21T15:53:49.775Z,-11599.34
2022-08-21T15:56:57.323Z,-11594.97
2022-08-21T16:00:13.415Z,-11598.38
2022-08-21T16:03:22.906Z,-11576.34
2022-08-21T16:06:37.476Z,-11581.84
2022-08-21T16:09:45.371Z,-11588.63
2022-08-21T16:12:58.318Z,-11589.75
2022-08-21T16:16:05.415Z,-11588.78
2022-08-21T16:19:13.612Z,-11580.56
2022-08-21T16:22:19.839Z,-11583.41
2022-08-21T16:25:26.582Z,-11572.41
2022-08-21T16:28:37.007Z,-11575.78
2022-08-21T16:31:43.720Z,-11576.34
2022-08-21T16:34:51.451Z,-11578.47
2022-08-21T16:37:58.150Z,-11571.28
2022-08-21T16:41:04.566Z,-11567.88
2022-08-21T16:44:14.160Z,-11567.88
2022-08-21T16:47:26.341Z,-11567.03
2022-08-21T16:50:33.535Z,-11559.13
2022-08-21T16:53:39.791Z,-11552.34
2022-08-21T16:56:48.031Z,-11558.00
2022-08-21T16:59:56.780Z,-11554.91
2022-08-21T17:03:03.183Z,-11550.38
2022-08-21T17:06:10.573Z,-11544.31
2022-08-21T17:09:17.152Z,-11546.16
2022-08-21T17:12:24.234Z,-11551.09
2022-08-21T17:15:35.160Z,-11547.28
2022-08-21T17:18:41.451Z,-11544.59
2022-08-21T17:21:47.893Z,-11531.47
2022-08-21T17:24:54.473Z,-11544.88
2022-08-21T17:28:01.479Z,-11538.66
2022-08-21T17:31:10.994Z,-11530.63
2022-08-21T17:34:17.566Z,-11524.13
2022-08-21T17:37:28.635Z,-11522.16
2022-08-21T17:40:36.235Z,-11514.53
2022-08-21T17:43:44.516Z,-11523.28
2022-08-21T17:46:52.054Z,-11518.34
2022-08-21T17:49:58.254Z,-11519.91
2022-08-21T17:53:04.746Z,-11523.00
2022-08-21T17:56:11.214Z,-11519.91
2022-08-21T17:59:17.531Z,-11529.78
2022-08-21T18:02:25.794Z,-11526.25
2022-08-21T18:05:32.258Z,-11524.84
2022-08-21T18:08:38.780Z,-11521.31
2022-08-21T18:11:45.391Z,-11530.63
2022-08-21T18:14:52.249Z,-11518.06
2022-08-21T18:18:00.441Z,-11520.47
2022-08-21T18:21:07.611Z,-11531.47
2022-08-21T18:24:14.743Z,-11528.38
2022-08-21T18:27:26.685Z,-11523.00
2022-08-21T18:30:41.394Z,-11516.66
2022-08-21T18:33:57.796Z,-11521.88
2022-08-21T18:37:05.579Z,-11519.63
2022-08-21T18:40:12.512Z,-11514.53
2022-08-21T18:43:19.311Z,-11499.44
2022-08-21T18:46:26.622Z,-11502.69
2022-08-21T18:49:34.330Z,-11517.06
2022-08-21T18:52:45.738Z,-11516.66
2022-08-21T18:56:05.480Z,-11519.34
2022-08-21T18:59:13.504Z,-11522.16
2022-08-21T19:02:19.599Z,-11513.69
2022-08-21T19:05:28.184Z,-11509.47
2022-08-21T19:08:34.342Z,-11507.50
2022-08-21T19:11:43.243Z,-11506.78
2022-08-21T19:14:50.658Z,-11508.91
2022-08-21T19:18:00.385Z,-11510.03
2022-08-21T19:21:07.967Z,-11503.53
2022-08-21T19:24:17.470Z,-11506.06
2022-08-21T19:27:24.498Z,-11505.50
2022-08-21T19:30:31.771Z,-11506.94
2022-08-21T19:33:44.302Z,-11502.00
2022-08-21T19:36:52.351Z,-11504.25
2022-08-21T19:39:58.677Z,-11502.97
2022-08-21T19:43:05.293Z,-11504.09
2022-08-21T19:46:26.992Z,-11499.03
2022-08-21T19:49:35.707Z,-11502.28
2022-08-21T19:52:57.102Z,-11503.69
2022-08-21T19:56:03.673Z,-11497.31
2022-08-21T19:59:10.742Z,-11497.03
2022-08-21T20:02:19.756Z,-11504.09
2022-08-21T20:05:25.936Z,-11507.06
2022-08-21T20:08:48.689Z,-11508.91
2022-08-21T20:11:58.753Z,-11511.28
2022-08-21T20:15:07.764Z,-11497.88
2022-08-21T20:18:14.118Z,-11494.22
2022-08-21T20:21:20.752Z,-11487.19
2022-08-21T20:24:28.699Z,-11493.09
2022-08-21T20:27:40.611Z,-11487.31
2022-08-21T20:30:48.397Z,-11471.66
2022-08-21T20:33:54.713Z,-11484.91
2022-08-21T20:37:01.380Z,-11478.16
2022-08-21T20:40:12.401Z,-11472.66
2022-08-21T20:43:20.546Z,-11463.19
2022-08-21T20:46:29.083Z,-11469.13
2022-08-21T20:49:39.748Z,-11485.47
2022-08-21T20:52:49.959Z,-11477.44
2022-08-21T20:56:00.465Z,-11482.66
2022-08-21T20:59:16.188Z,-11475.91
2022-08-21T21:02:41.376Z,-11456.84
2022-08-21T21:05:53.103Z,-11468.97
2022-08-21T21:09:08.514Z,-11457.28
2022-08-21T21:12:27.941Z,-11475.63
2022-08-21T21:15:54.653Z,-11480.53
2022-08-21T21:19:07.036Z,-11469.97
2022-08-21T21:22:21.761Z,-11481.81
2022-08-21T21:25:39.882Z,-11481.81
2022-08-21T21:28:56.008Z,-11483.38
2022-08-21T21:32:03.022Z,-11485.06
2022-08-21T21:35:12.778Z,-11492.25
2022-08-21T21:38:26.154Z,-11488.72
2022-08-21T21:41:36.719Z,-11492.81
2022-08-21T21:45:14.517Z,-11491.69
2022-08-21T21:48:29.275Z,-11485.63
2022-08-21T21:51:48.039Z,-11491.53
2022-08-21T21:55:33.654Z,-11486.03
2022-08-21T21:59:01.746Z,-11487.59
2022-08-21T22:02:26.779Z,-11487.19
2022-08-21T22:05:47.536Z,-11490.84
2022-08-21T22:09:00.831Z,-11489.28
2022-08-21T22:12:20.006Z,-11488.88
2022-08-21T22:15:27.787Z,-11490.13
2022-08-21T22:18:45.215Z,-11489.44
2022-08-21T22:21:58.118Z,-11485.19
2022-08-21T22:25:09.721Z,-11469.13
2022-08-21T22:28:25.371Z,-11486.59
2022-08-21T22:31:34.990Z,-11487.59
2022-08-21T22:35:02.393Z,-11493.09
2022-08-21T22:38:20.701Z,-11472.22
2022-08-21T22:41:32.279Z,-11475.91
2022-08-21T22:44:51.091Z,-11480.13
2022-08-21T22:48:06.127Z,-11489.72
2022-08-21T22:55:02.731Z,-11490.00
2022-08-21T22:58:14.164Z,-11484.78
2022-08-21T23:01:34.024Z,-11486.91
2022-08-21T23:04:48.951Z,-11489.44
2022-08-21T23:07:58.036Z,-11486.03
2022-08-21T23:11:06.336Z,-11484.63
2022-08-21T23:14:14.195Z,-11485.34
2022-08-21T23:17:28.255Z,-11486.59
2022-08-21T23:20:40.891Z,-11486.75
2022-08-21T23:24:03.479Z,-11478.00
2022-08-21T23:27:19.071Z,-11489.28
2022-08-21T23:30:35.636Z,-11484.50
2022-08-21T23:33:56.259Z,-11487.19
2022-08-21T23:37:48.815Z,-11486.59
2022-08-21T23:41:04.015Z,-11482.09
2022-08-21T23:44:29.536Z,-11490.00
2022-08-21T23:47:51.070Z,-11489.56
2022-08-21T23:51:20.128Z,-11488.59
2022-08-21T23:54:35.221Z,-11490.97
2022-08-21T23:57:57.757Z,-11481.25
